createdAt,value
2022-10-04T00:02:03.111Z,2.40
2022-10-04T00:04:41.401Z,2.70
2022-10-04T00:07:12.418Z,2.20
2022-10-04T00:09:48.199Z,2.40
2022-10-04T00:12:25.193Z,2.30
2022-10-04T00:14:56.928Z,2.30
2022-10-04T00:17:31.958Z,2.50
2022-10-04T00:19:59.963Z,2.30
2022-10-04T00:22:36.924Z,2.60
2022-10-04T00:25:07.912Z,2.60
2022-10-04T00:27:37.765Z,2.00
2022-10-04T00:30:05.615Z,2.70
2022-10-04T00:33:01.266Z,2.50
2022-10-04T00:35:29.124Z,2.70
2022-10-04T00:38:24.991Z,2.50
2022-10-04T00:41:08.965Z,2.60
2022-10-04T00:43:43.015Z,2.60
2022-10-04T00:46:24.325Z,2.90
2022-10-04T00:48:59.619Z,2.80
2022-10-04T00:51:50.014Z,2.80
2022-10-04T00:54:21.099Z,2.60
2022-10-04T00:57:01.168Z,2.60
2022-10-04T00:59:38.273Z,2.80
2022-10-04T01:02:12.252Z,3.00
2022-10-04T01:04:54.969Z,2.70
2022-10-04T01:07:41.424Z,2.40
2022-10-04T01:10:25.554Z,2.50
2022-10-04T01:13:19.650Z,2.80
2022-10-04T01:16:10.124Z,2.50
2022-10-04T01:18:38.560Z,2.50
2022-10-04T01:21:27.160Z,3.00
2022-10-04T01:23:57.997Z,3.00
2022-10-04T01:26:34.604Z,2.70
2022-10-04T01:31:45.731Z,2.70
2022-10-04T01:34:22.594Z,2.70
2022-10-04T01:36:52.976Z,2.70
2022-10-04T01:39:23.472Z,2.20
2022-10-04T01:42:03.359Z,2.20
2022-10-04T01:44:41.327Z,2.30
2022-10-04T01:47:16.975Z,2.20
2022-10-04T01:49:47.708Z,2.30
2022-10-04T01:52:29.516Z,2.40
2022-10-04T01:55:13.367Z,2.00
2022-10-04T01:57:58.410Z,2.70
2022-10-04T02:04:39.867Z,3.10
2022-10-04T02:07:15.976Z,2.30
2022-10-04T02:09:47.976Z,2.20
2022-10-04T02:12:18.880Z,2.40
2022-10-04T02:14:52.823Z,2.10
2022-10-04T02:17:28.659Z,2.40
2022-10-04T02:19:59.702Z,2.40
2022-10-04T02:22:30.291Z,2.40
2022-10-04T02:24:58.846Z,2.50
2022-10-04T02:27:29.463Z,2.80
2022-10-04T02:30:12.628Z,2.40
2022-10-04T02:32:59.780Z,2.90
2022-10-04T02:38:22.690Z,2.50
2022-10-04T02:40:57.827Z,2.40
2022-10-04T02:43:40.441Z,2.90
2022-10-04T02:46:15.158Z,2.70
2022-10-04T02:48:55.312Z,3.00
2022-10-04T02:51:33.631Z,3.40
2022-10-04T02:54:29.821Z,3.20
2022-10-04T02:56:59.528Z,3.10
2022-10-04T02:59:33.543Z,3.30
2022-10-04T03:02:29.010Z,3.30
2022-10-04T03:05:08.550Z,3.40
2022-10-04T03:07:38.430Z,3.20
2022-10-04T03:10:12.550Z,3.70
2022-10-04T03:12:41.461Z,3.70
2022-10-04T03:15:13.138Z,3.50
2022-10-04T03:17:44.099Z,2.80
2022-10-04T03:20:16.336Z,3.20
2022-10-04T03:22:47.091Z,2.90
2022-10-04T03:25:21.456Z,2.70
2022-10-04T03:27:51.335Z,2.90
2022-10-04T03:30:22.734Z,3.30
2022-10-04T03:32:51.235Z,3.00
2022-10-04T03:35:40.658Z,3.00
2022-10-04T03:38:12.497Z,2.90
2022-10-04T03:40:46.251Z,3.10
2022-10-04T03:43:14.956Z,3.10
2022-10-04T03:45:43.339Z,2.90
2022-10-04T03:48:18.210Z,2.70
2022-10-04T03:50:48.931Z,2.80
2022-10-04T03:53:35.561Z,2.60
2022-10-04T03:56:12.876Z,2.70
2022-10-04T03:58:41.073Z,3.10
2022-10-04T04:01:33.362Z,2.70
2022-10-04T04:04:42.591Z,3.50
2022-10-04T04:07:25.919Z,3.10
2022-10-04T04:10:05.578Z,3.10
2022-10-04T04:13:00.985Z,3.00
2022-10-04T04:15:31.327Z,2.80
2022-10-04T04:18:11.782Z,2.90
2022-10-04T04:20:42.661Z,3.40
2022-10-04T04:23:11.113Z,3.60
2022-10-04T04:25:42.087Z,4.00
2022-10-04T04:28:31.507Z,3.80
2022-10-04T04:31:05.893Z,3.30
2022-10-04T04:34:00.438Z,3.30
2022-10-04T04:36:31.808Z,3.20
2022-10-04T04:39:27.574Z,3.30
2022-10-04T04:41:55.561Z,2.90
2022-10-04T04:44:23.791Z,3.00
2022-10-04T04:46:52.537Z,3.60
2022-10-04T04:50:20.628Z,3.50
2022-10-04T04:53:52.902Z,3.90
2022-10-04T04:57:29.152Z,3.50
2022-10-04T05:00:01.409Z,3.70
2022-10-04T05:03:36.740Z,3.70
2022-10-04T05:07:27.528Z,3.80
2022-10-04T05:11:10.095Z,4.30
2022-10-04T05:14:18.442Z,4.50
2022-10-04T05:16:53.926Z,4.20
2022-10-04T05:20:21.964Z,4.80
2022-10-04T05:23:33.814Z,5.20
2022-10-04T05:26:43.939Z,4.80
2022-10-04T05:29:37.483Z,4.30
2022-10-04T05:32:39.851Z,4.90
2022-10-04T05:35:19.209Z,4.60
2022-10-04T05:38:03.861Z,4.90
2022-10-04T05:40:57.053Z,5.20
2022-10-04T05:43:36.767Z,5.50
2022-10-04T05:46:18.098Z,5.40
2022-10-04T05:48:50.803Z,5.20
2022-10-04T05:51:28.221Z,5.40
2022-10-04T05:54:01.931Z,5.50
2022-10-04T05:56:47.739Z,5.00
2022-10-04T05:59:46.455Z,4.10
2022-10-04T06:02:44.269Z,3.50
2022-10-04T06:05:28.192Z,2.90
2022-10-04T06:08:32.055Z,2.80
2022-10-04T06:11:23.600Z,3.00
2022-10-04T06:14:09.267Z,3.00
2022-10-04T06:16:37.234Z,3.00
2022-10-04T06:19:24.163Z,2.60
2022-10-04T06:22:14.644Z,2.90
2022-10-04T06:24:47.499Z,3.30
2022-10-04T06:27:31.738Z,2.70
2022-10-04T06:30:17.755Z,2.90
2022-10-04T06:32:49.228Z,2.70
2022-10-04T06:35:42.840Z,2.40
2022-10-04T06:38:46.193Z,2.30
2022-10-04T06:41:26.014Z,2.40
2022-10-04T06:44:03.193Z,2.40
2022-10-04T06:46:50.743Z,2.60
2022-10-04T06:49:57.153Z,2.70
2022-10-04T06:52:51.952Z,3.00
2022-10-04T06:56:23.390Z,3.10
2022-10-04T06:59:39.260Z,2.80
2022-10-04T07:02:22.774Z,3.20
2022-10-04T07:05:13.521Z,3.10
2022-10-04T07:08:34.418Z,3.00
2022-10-04T07:12:22.912Z,2.80
2022-10-04T07:16:17.759Z,2.70
2022-10-04T07:20:12.346Z,2.70
2022-10-04T07:24:07.219Z,3.00
2022-10-04T07:27:56.678Z,2.90
2022-10-04T07:32:04.162Z,2.60
2022-10-04T07:35:53.084Z,2.30
2022-10-04T07:39:44.638Z,2.50
2022-10-04T07:43:33.459Z,2.40
2022-10-04T07:47:23.546Z,2.30
2022-10-04T07:51:15.529Z,2.50
2022-10-04T07:55:14.023Z,2.10
2022-10-04T07:59:01.080Z,2.20
2022-10-04T08:02:53.561Z,1.90
2022-10-04T08:06:51.544Z,1.90
2022-10-04T08:10:43.846Z,2.10
2022-10-04T08:14:41.534Z,1.90
2022-10-04T08:18:33.594Z,2.20
2022-10-04T08:22:22.450Z,1.90
2022-10-04T08:26:09.757Z,1.80
2022-10-04T08:29:48.619Z,1.90
2022-10-04T08:33:22.301Z,1.80
2022-10-04T08:37:19.868Z,1.80
2022-10-04T08:41:06.942Z,1.60
2022-10-04T08:44:57.248Z,1.90
2022-10-04T08:52:25.068Z,2.10
2022-10-04T08:55:59.027Z,1.80
2022-10-04T08:58:49.045Z,2.00
2022-10-04T09:01:46.304Z,1.90
2022-10-04T09:04:39.323Z,1.60
2022-10-04T09:08:18.347Z,1.80
2022-10-04T09:11:26.886Z,1.70
2022-10-04T09:15:03.680Z,1.60
2022-10-04T09:18:33.783Z,1.20
2022-10-04T09:21:55.384Z,1.20
2022-10-04T09:24:34.706Z,1.00
2022-10-04T09:28:24.910Z,1.30
2022-10-04T09:32:25.134Z,1.30
2022-10-04T09:36:13.403Z,1.00
2022-10-04T09:40:07.873Z,1.30
2022-10-04T09:43:51.554Z,1.30
2022-10-04T09:47:15.104Z,1.20
2022-10-04T09:50:59.925Z,1.40
2022-10-04T09:54:57.741Z,1.30
2022-10-04T09:59:00.617Z,1.10
2022-10-04T10:03:04.611Z,1.20
2022-10-04T10:06:32.388Z,1.40
2022-10-04T10:10:31.507Z,1.30
2022-10-04T10:14:44.634Z,1.10
2022-10-04T10:18:28.839Z,1.10
2022-10-04T10:22:20.655Z,0.90
2022-10-04T10:26:27.503Z,0.90
2022-10-04T10:30:07.198Z,1.00
2022-10-04T10:34:04.821Z,1.00
2022-10-04T10:38:08.714Z,1.40
2022-10-04T10:42:15.269Z,1.10
2022-10-04T10:46:28.528Z,1.30
2022-10-04T10:50:32.525Z,1.10
2022-10-04T10:54:44.944Z,1.50
2022-10-04T10:58:51.708Z,1.30
2022-10-04T11:02:50.535Z,1.30
2022-10-04T11:06:37.710Z,1.50
2022-10-04T11:10:29.473Z,1.30
2022-10-04T11:14:25.629Z,1.60
2022-10-04T11:18:00.152Z,1.10
2022-10-04T11:21:41.539Z,1.00
2022-10-04T11:25:48.129Z,1.10
2022-10-04T11:29:55.109Z,1.10
2022-10-04T11:33:45.153Z,1.00
2022-10-04T11:37:19.399Z,1.60
2022-10-04T11:41:25.787Z,3.10
2022-10-04T11:45:04.655Z,1.20
2022-10-04T11:48:35.739Z,1.40
2022-10-04T11:52:38.390Z,1.40
2022-10-04T11:56:45.337Z,1.10
2022-10-04T12:00:34.483Z,1.30
2022-10-04T12:04:23.330Z,1.20
2022-10-04T12:08:10.523Z,1.40
2022-10-04T12:11:55.101Z,0.90
2022-10-04T12:15:41.045Z,1.10
2022-10-04T12:19:29.966Z,1.10
2022-10-04T12:27:54.516Z,1.10
2022-10-04T12:31:46.224Z,1.00
2022-10-04T12:35:47.242Z,1.20
2022-10-04T12:39:43.613Z,1.40
2022-10-04T12:43:32.656Z,1.10
2022-10-04T12:47:27.484Z,1.30
2022-10-04T12:51:22.752Z,1.10
2022-10-04T12:55:11.730Z,1.50
2022-10-04T12:58:43.870Z,1.50
2022-10-04T13:02:02.138Z,1.20
2022-10-04T13:05:43.789Z,1.20
2022-10-04T13:09:08.000Z,1.40
2022-10-04T13:13:05.716Z,1.50
2022-10-04T13:21:09.203Z,1.30
2022-10-04T13:25:00.650Z,1.30
2022-10-04T13:28:54.409Z,1.10
2022-10-04T13:32:06.579Z,1.20
2022-10-04T13:35:03.946Z,1.10
2022-10-04T13:38:08.303Z,2.10
2022-10-04T13:41:06.162Z,1.10
2022-10-04T13:44:04.778Z,1.10
2022-10-04T13:47:18.374Z,1.50
2022-10-04T13:50:10.153Z,1.30
2022-10-04T13:53:29.278Z,1.30
2022-10-04T13:56:40.442Z,1.20
2022-10-04T13:59:24.451Z,1.30
2022-10-04T14:02:44.979Z,1.70
2022-10-04T14:06:12.609Z,1.20
2022-10-04T14:10:25.743Z,1.00
2022-10-04T14:14:25.080Z,0.90
2022-10-04T14:18:27.122Z,1.00
2022-10-04T14:22:37.338Z,1.60
2022-10-04T14:26:45.537Z,1.00
2022-10-04T14:30:49.152Z,1.30
2022-10-04T14:34:56.699Z,1.50
2022-10-04T14:38:55.994Z,1.60
2022-10-04T14:42:56.822Z,1.10
2022-10-04T14:46:50.140Z,1.30
2022-10-04T14:50:57.010Z,1.50
2022-10-04T14:55:10.010Z,1.50
2022-10-04T14:59:14.361Z,1.80
2022-10-04T15:03:10.210Z,1.50
2022-10-04T15:07:10.416Z,1.00
2022-10-04T15:11:10.433Z,1.00
2022-10-04T15:15:06.049Z,1.10
2022-10-04T15:19:20.063Z,1.30
2022-10-04T15:23:08.956Z,0.90
2022-10-04T15:27:00.574Z,0.70
2022-10-04T15:31:01.475Z,1.40
2022-10-04T15:34:47.176Z,1.40
2022-10-04T15:38:38.962Z,1.20
2022-10-04T15:42:36.533Z,1.10
2022-10-04T15:46:29.733Z,1.00
2022-10-04T15:50:49.230Z,1.20
2022-10-04T15:54:46.766Z,1.30
2022-10-04T15:58:38.353Z,1.20
2022-10-04T16:02:45.308Z,1.50
2022-10-04T16:06:35.550Z,1.70
2022-10-04T16:10:42.564Z,1.30
2022-10-04T16:14:29.998Z,1.40
2022-10-04T16:18:52.112Z,2.10
2022-10-04T16:22:53.033Z,2.00
2022-10-04T16:26:44.569Z,1.90
2022-10-04T16:30:39.596Z,2.00
2022-10-04T16:34:43.626Z,1.90
2022-10-04T16:38:32.546Z,1.70
2022-10-04T16:42:27.340Z,1.40
2022-10-04T16:46:13.618Z,1.70
2022-10-04T16:50:20.813Z,1.60
2022-10-04T16:54:07.810Z,1.30
2022-10-04T16:57:56.637Z,1.40
2022-10-04T17:00:49.512Z,1.50
2022-10-04T17:03:32.092Z,1.70
2022-10-04T17:06:18.785Z,1.90
2022-10-04T17:09:32.507Z,1.80
2022-10-04T17:12:37.360Z,2.00
2022-10-04T17:15:48.757Z,2.40
2022-10-04T17:18:35.956Z,2.40
2022-10-04T17:21:37.783Z,2.40
2022-10-04T17:24:48.045Z,2.20
2022-10-04T17:27:58.263Z,3.00
2022-10-04T17:30:32.042Z,2.30
2022-10-04T17:33:38.956Z,2.60
2022-10-04T17:36:46.427Z,2.10
2022-10-04T17:42:08.482Z,1.80
2022-10-04T17:45:02.486Z,2.60
2022-10-04T17:48:24.326Z,2.10
2022-10-04T17:51:22.288Z,1.80
2022-10-04T17:54:22.764Z,2.60
2022-10-04T17:57:23.725Z,2.70
2022-10-04T18:00:18.228Z,3.00
2022-10-04T18:03:24.858Z,3.40
2022-10-04T18:06:29.787Z,4.10
2022-10-04T18:09:23.996Z,3.20
2022-10-04T18:12:07.561Z,2.70
2022-10-04T18:14:36.585Z,3.10
2022-10-04T18:17:14.774Z,3.10
2022-10-04T18:20:16.836Z,5.20
2022-10-04T18:22:51.380Z,7.40
2022-10-04T18:26:20.052Z,8.80
2022-10-04T18:30:20.707Z,5.90
2022-10-04T18:37:12.599Z,4.60
2022-10-04T18:40:58.283Z,4.20
2022-10-04T18:44:19.810Z,4.30
2022-10-04T18:47:45.858Z,3.10
2022-10-04T18:51:25.102Z,3.40
2022-10-04T18:55:14.728Z,4.00
2022-10-04T18:58:49.664Z,3.30
2022-10-04T19:02:22.228Z,3.30
2022-10-04T19:06:31.935Z,3.40
2022-10-04T19:10:29.380Z,3.40
2022-10-04T19:14:33.173Z,3.10
2022-10-04T19:18:40.432Z,3.20
2022-10-04T19:22:44.452Z,3.10
2022-10-04T19:26:51.513Z,2.90
2022-10-04T19:30:43.445Z,2.60
2022-10-04T19:34:33.161Z,2.70
2022-10-04T19:38:28.089Z,3.50
2022-10-04T19:42:04.103Z,3.90
2022-10-04T19:46:03.728Z,3.00
2022-10-04T19:49:52.589Z,2.70
2022-10-04T19:53:53.361Z,2.50
2022-10-04T19:57:38.240Z,3.10
2022-10-04T20:01:09.415Z,2.50
2022-10-04T20:04:58.351Z,2.30
2022-10-04T20:08:49.984Z,2.40
2022-10-04T20:12:38.918Z,2.60
2022-10-04T20:16:17.596Z,2.40
2022-10-04T20:19:55.988Z,2.30
2022-10-04T20:23:50.603Z,2.30
2022-10-04T20:27:39.452Z,2.40
2022-10-04T20:31:28.204Z,2.50
2022-10-04T20:35:23.196Z,3.40
2022-10-04T20:39:24.065Z,3.40
2022-10-04T20:47:02.837Z,3.20
2022-10-04T20:50:57.419Z,4.10
2022-10-04T20:54:46.261Z,5.30
2022-10-04T20:58:35.244Z,4.30
2022-10-04T21:02:24.116Z,4.40
2022-10-04T21:06:12.934Z,4.30
2022-10-04T21:10:10.713Z,4.20
2022-10-04T21:13:57.634Z,4.00
2022-10-04T21:17:44.831Z,4.10
2022-10-04T21:21:46.020Z,4.10
2022-10-04T21:25:43.469Z,4.50
2022-10-04T21:29:34.867Z,5.40
2022-10-04T21:33:23.706Z,3.60
2022-10-04T21:37:12.479Z,4.00
2022-10-04T21:41:01.383Z,4.00
2022-10-04T21:44:50.274Z,3.60
2022-10-04T21:48:39.093Z,3.70
2022-10-04T21:52:28.331Z,3.30
2022-10-04T21:56:17.172Z,3.00
2022-10-04T22:00:05.954Z,3.30
2022-10-04T22:03:54.838Z,3.10
2022-10-04T22:07:43.628Z,2.20
2022-10-04T22:11:32.561Z,2.10
2022-10-04T22:15:21.426Z,2.30
2022-10-04T22:19:10.368Z,2.60
2022-10-04T22:22:59.244Z,2.60
2022-10-04T22:26:50.785Z,2.50
2022-10-04T22:30:39.680Z,3.20
2022-10-04T22:34:40.701Z,2.80
2022-10-04T22:38:29.612Z,3.00
2022-10-04T22:42:21.164Z,3.20
2022-10-04T22:46:16.325Z,2.80
2022-10-04T22:50:05.193Z,2.60
2022-10-04T22:53:57.105Z,2.60
2022-10-04T22:57:46.146Z,3.10
2022-10-04T23:01:34.955Z,3.00
2022-10-04T23:05:23.751Z,3.00
2022-10-04T23:09:12.645Z,2.50
2022-10-04T23:13:01.666Z,2.90
2022-10-04T23:16:50.625Z,3.00
2022-10-04T23:20:39.380Z,3.00
2022-10-04T23:24:28.184Z,2.90
2022-10-04T23:28:17.114Z,3.10
2022-10-04T23:32:06.172Z,2.90
2022-10-04T23:35:57.841Z,3.40
2022-10-04T23:39:49.733Z,3.10
2022-10-04T23:43:38.616Z,2.90
2022-10-04T23:46:46.330Z,3.20
2022-10-04T23:50:18.021Z,3.30
2022-10-04T23:53:36.401Z,2.90
2022-10-04T23:56:54.254Z,3.30
